createdAt,value
2023-06-06T00:01:55.432Z,94750.59
2023-06-06T00:04:22.044Z,94753.59
2023-06-06T00:06:48.685Z,94748.19
2023-06-06T00:09:15.159Z,94750.03
2023-06-06T00:11:41.670Z,94745.97
2023-06-06T00:14:08.136Z,94754.16
2023-06-06T00:16:34.778Z,94753.41
2023-06-06T00:19:01.331Z,94750.47
2023-06-06T00:21:27.811Z,94753.19
2023-06-06T00:23:54.262Z,94761.53
2023-06-06T00:26:20.750Z,94753.00
2023-06-06T00:28:47.213Z,94756.16
2023-06-06T00:31:13.703Z,94756.09
2023-06-06T00:33:40.208Z,94757.63
2023-06-06T00:36:06.755Z,94758.25
2023-06-06T00:38:33.212Z,94759.72
2023-06-06T00:40:59.648Z,94761.97
2023-06-06T00:43:26.095Z,94758.06
2023-06-06T00:45:52.585Z,94758.66
2023-06-06T00:48:19.087Z,94769.41
2023-06-06T00:50:45.537Z,94767.75
2023-06-06T00:53:12.023Z,94773.47
2023-06-06T00:55:38.483Z,94775.88
2023-06-06T00:58:04.951Z,94763.75
2023-06-06T01:00:31.413Z,94763.47
2023-06-06T01:02:57.969Z,94769.00
2023-06-06T01:05:24.505Z,94770.19
2023-06-06T01:07:50.982Z,94767.81
2023-06-06T01:10:17.439Z,94772.44
2023-06-06T01:12:43.909Z,94777.66
2023-06-06T01:15:10.400Z,94773.47
2023-06-06T01:17:36.918Z,94775.88
2023-06-06T01:20:03.445Z,94775.00
2023-06-06T01:22:29.917Z,94780.59
2023-06-06T01:24:56.380Z,94779.69
2023-06-06T01:27:22.871Z,94781.03
2023-06-06T01:29:49.345Z,94785.97
2023-06-06T01:32:15.785Z,94776.63
2023-06-06T01:34:42.268Z,94785.25
2023-06-06T01:37:08.738Z,94782.28
2023-06-06T01:39:35.206Z,94780.03
2023-06-06T01:42:01.671Z,94787.06
2023-06-06T01:44:28.121Z,94783.78
2023-06-06T01:46:54.628Z,94783.47
2023-06-06T01:49:21.109Z,94786.31
2023-06-06T01:51:47.625Z,94783.16
2023-06-06T01:54:14.149Z,94789.13
2023-06-06T01:56:40.616Z,94792.72
2023-06-06T01:59:07.082Z,94793.00
2023-06-06T02:01:33.570Z,94794.97
2023-06-06T02:04:00.099Z,94796.16
2023-06-06T02:06:26.640Z,94790.63
2023-06-06T02:08:53.102Z,94796.91
2023-06-06T02:11:19.601Z,94798.38
2023-06-06T02:13:46.040Z,94798.69
2023-06-06T02:16:12.674Z,94807.78
2023-06-06T02:18:39.166Z,94804.34
2023-06-06T02:21:05.629Z,94803.41
2023-06-06T02:23:32.130Z,94809.63
2023-06-06T02:25:58.668Z,94813.84
2023-06-06T02:28:25.145Z,94815.63
2023-06-06T02:30:51.737Z,94808.63
2023-06-06T02:33:18.239Z,94815.50
2023-06-06T02:35:44.769Z,94812.94
2023-06-06T02:38:11.233Z,94821.91
2023-06-06T02:40:37.713Z,94814.75
2023-06-06T02:43:04.202Z,94812.22
2023-06-06T02:45:30.699Z,94814.78
2023-06-06T02:47:57.214Z,94814.31
2023-06-06T02:50:23.729Z,94807.31
2023-06-06T02:52:50.214Z,94818.66
2023-06-06T02:55:16.700Z,94821.59
2023-06-06T02:57:43.147Z,94824.59
2023-06-06T03:00:09.770Z,94821.00
2023-06-06T03:02:36.597Z,94815.78
2023-06-06T03:05:03.161Z,94815.66
2023-06-06T03:07:29.669Z,94824.00
2023-06-06T03:09:56.111Z,94824.91
2023-06-06T03:12:22.600Z,94820.28
2023-06-06T03:14:56.931Z,94820.13
2023-06-06T03:17:24.335Z,94820.44
2023-06-06T03:19:50.784Z,94822.50
2023-06-06T03:22:17.254Z,94826.38
2023-06-06T03:24:43.727Z,94827.56
2023-06-06T03:27:10.178Z,94827.69
2023-06-06T03:29:36.646Z,94834.69
2023-06-06T03:32:03.201Z,94834.81
2023-06-06T03:34:29.857Z,94841.22
2023-06-06T03:36:56.313Z,94841.34
2023-06-06T03:39:22.768Z,94846.94
2023-06-06T03:41:49.376Z,94843.53
2023-06-06T03:44:15.836Z,94843.59
2023-06-06T03:46:42.335Z,94847.31
2023-06-06T03:49:08.831Z,94844.59
2023-06-06T03:51:35.321Z,94845.78
2023-06-06T03:54:01.842Z,94840.88
2023-06-06T03:56:28.278Z,94843.03
2023-06-06T03:58:54.745Z,94842.72
2023-06-06T04:01:21.232Z,94840.69
2023-06-06T04:03:47.758Z,94847.53
2023-06-06T04:06:14.346Z,94838.56
2023-06-06T04:08:41.013Z,94837.75
2023-06-06T04:11:07.523Z,94846.41
2023-06-06T04:13:34.093Z,94841.03
2023-06-06T04:16:00.611Z,94849.09
2023-06-06T04:18:27.196Z,94845.38
2023-06-06T04:20:53.872Z,94851.22
2023-06-06T04:23:20.364Z,94853.19
2023-06-06T04:25:46.982Z,94845.34
2023-06-06T04:28:13.465Z,94855.59
2023-06-06T04:30:39.928Z,94856.84
2023-06-06T04:33:06.533Z,94856.84
2023-06-06T04:35:33.076Z,94852.50
2023-06-06T04:37:59.579Z,94851.50
2023-06-06T04:40:26.060Z,94858.03
2023-06-06T04:42:52.514Z,94867.84
2023-06-06T04:45:18.983Z,94864.81
2023-06-06T04:47:45.546Z,94866.75
2023-06-06T04:50:12.097Z,94872.19
2023-06-06T04:52:38.587Z,94873.94
2023-06-06T04:55:05.148Z,94875.44
2023-06-06T04:57:31.656Z,94879.63
2023-06-06T04:59:58.209Z,94878.06
2023-06-06T05:02:24.756Z,94876.81
2023-06-06T05:04:51.657Z,94873.69
2023-06-06T05:07:18.143Z,94877.25
2023-06-06T05:09:44.613Z,94881.03
2023-06-06T05:12:11.048Z,94872.09
2023-06-06T05:14:37.543Z,94870.81
2023-06-06T05:17:04.005Z,94877.09
2023-06-06T05:19:30.505Z,94875.16
2023-06-06T05:21:58.163Z,94878.25
2023-06-06T05:24:24.688Z,94878.19
2023-06-06T05:26:51.193Z,94871.53
2023-06-06T05:29:17.663Z,94883.91
2023-06-06T05:31:44.137Z,94882.50
2023-06-06T05:34:10.578Z,94880.59
2023-06-06T05:36:37.083Z,94877.03
2023-06-06T05:39:03.526Z,94874.78
2023-06-06T05:41:30.024Z,94880.31
2023-06-06T05:43:56.503Z,94889.41
2023-06-06T05:46:23.058Z,94880.84
2023-06-06T05:48:49.632Z,94890.78
2023-06-06T05:51:16.374Z,94878.56
2023-06-06T05:53:43.010Z,94875.63
2023-06-06T05:56:09.485Z,94880.66
2023-06-06T05:58:36.094Z,94880.31
2023-06-06T06:01:02.563Z,94879.78
2023-06-06T06:03:29.103Z,94882.34
2023-06-06T06:05:55.650Z,94890.13
2023-06-06T06:08:22.172Z,94885.69
2023-06-06T06:10:48.640Z,94883.44
2023-06-06T06:13:15.119Z,94881.66
2023-06-06T06:15:41.578Z,94880.16
2023-06-06T06:18:08.100Z,94888.81
2023-06-06T06:20:34.623Z,94883.16
2023-06-06T06:23:01.088Z,94890.75
2023-06-06T06:25:27.725Z,94883.75
2023-06-06T06:27:54.194Z,94888.22
2023-06-06T06:30:20.643Z,94887.16
2023-06-06T06:32:47.149Z,94892.19
2023-06-06T06:35:13.641Z,94886.84
2023-06-06T06:37:40.112Z,94901.72
2023-06-06T06:40:06.569Z,94897.69
2023-06-06T06:42:33.071Z,94905.25
2023-06-06T06:44:59.526Z,94904.50
2023-06-06T06:47:26.006Z,94907.44
2023-06-06T06:49:52.510Z,94905.06
2023-06-06T06:52:18.963Z,94909.31
2023-06-06T06:54:45.477Z,94915.16
2023-06-06T06:57:12.026Z,94913.72
2023-06-06T06:59:38.524Z,94918.25
2023-06-06T07:02:04.986Z,94916.34
2023-06-06T07:04:31.473Z,94918.41
2023-06-06T07:06:57.944Z,94923.09
2023-06-06T07:09:24.406Z,94920.19
2023-06-06T07:11:50.870Z,94920.94
2023-06-06T07:14:17.334Z,94918.84
2023-06-06T07:16:43.805Z,94925.88
2023-06-06T07:19:10.242Z,94915.31
2023-06-06T07:21:36.715Z,94928.41
2023-06-06T07:24:03.224Z,94913.22
2023-06-06T07:26:29.713Z,94914.94
2023-06-06T07:28:56.172Z,94920.50
2023-06-06T07:31:22.704Z,94915.69
2023-06-06T07:33:49.208Z,94911.75
2023-06-06T07:36:15.700Z,94916.56
2023-06-06T07:38:42.153Z,94915.50
2023-06-06T07:41:08.672Z,94919.84
2023-06-06T07:43:35.253Z,94921.19
2023-06-06T07:46:01.713Z,94916.16
2023-06-06T07:48:28.196Z,94918.69
2023-06-06T07:50:54.632Z,94915.38
2023-06-06T07:53:21.092Z,94912.97
2023-06-06T07:55:47.541Z,94912.38
2023-06-06T07:58:13.997Z,94906.91
2023-06-06T08:00:40.506Z,94913.31
2023-06-06T08:03:08.569Z,94908.53
2023-06-06T08:05:35.482Z,94907.03
2023-06-06T08:08:01.965Z,94902.81
2023-06-06T08:10:28.540Z,94905.56
2023-06-06T08:12:55.030Z,94900.44
2023-06-06T08:15:21.558Z,94899.13
2023-06-06T08:17:48.176Z,94900.69
2023-06-06T08:20:14.778Z,94895.50
2023-06-06T08:22:41.308Z,94895.97
2023-06-06T08:25:07.838Z,94897.91
2023-06-06T08:27:34.321Z,94896.00
2023-06-06T08:30:00.796Z,94903.75
2023-06-06T08:32:27.312Z,94897.03
2023-06-06T08:34:53.803Z,94898.19
2023-06-06T08:37:20.350Z,94903.41
2023-06-06T08:39:46.829Z,94893.00
2023-06-06T08:42:13.313Z,94903.72
2023-06-06T08:44:39.771Z,94892.34
2023-06-06T08:47:06.289Z,94905.16
2023-06-06T08:49:32.773Z,94896.34
2023-06-06T08:51:59.219Z,94891.06
2023-06-06T08:54:25.686Z,94893.22
2023-06-06T08:56:52.190Z,94897.47
2023-06-06T08:59:18.718Z,94893.22
2023-06-06T09:01:45.303Z,94895.09
2023-06-06T09:04:12.024Z,94898.81
2023-06-06T09:06:38.595Z,94889.13
2023-06-06T09:09:05.063Z,94892.34
2023-06-06T09:11:31.569Z,94892.47
2023-06-06T09:13:58.034Z,94892.81
2023-06-06T09:16:24.603Z,94886.53
2023-06-06T09:18:51.189Z,94887.56
2023-06-06T09:21:17.659Z,94886.31
2023-06-06T09:23:44.170Z,94891.25
2023-06-06T09:26:10.786Z,94887.00
2023-06-06T09:28:37.412Z,94887.81
2023-06-06T09:31:03.972Z,94893.56
2023-06-06T09:33:30.610Z,94896.84
2023-06-06T09:35:57.120Z,94893.19
2023-06-06T09:38:23.741Z,94892.75
2023-06-06T09:40:50.218Z,94890.84
2023-06-06T09:43:16.872Z,94884.25
2023-06-06T09:45:43.449Z,94888.25
2023-06-06T09:48:10.000Z,94876.50
2023-06-06T09:50:36.636Z,94890.22
2023-06-06T09:53:03.089Z,94885.63
2023-06-06T09:55:29.606Z,94875.44
2023-06-06T09:57:56.090Z,94879.41
2023-06-06T10:00:22.708Z,94874.59
2023-06-06T10:02:49.539Z,94880.59
2023-06-06T10:05:16.564Z,94877.00
2023-06-06T10:07:43.402Z,94870.00
2023-06-06T10:10:09.919Z,94868.63
2023-06-06T10:12:36.854Z,94870.63
2023-06-06T10:15:03.379Z,94853.97
2023-06-06T10:17:29.854Z,94859.53
2023-06-06T10:19:56.488Z,94863.50
2023-06-06T10:22:23.413Z,94859.75
2023-06-06T10:24:49.889Z,94852.19
2023-06-06T10:27:16.411Z,94859.94
2023-06-06T10:29:42.949Z,94867.47
2023-06-06T10:32:09.454Z,94866.75
2023-06-06T10:34:35.993Z,94856.56
2023-06-06T10:37:02.435Z,94862.56
2023-06-06T10:39:28.903Z,94861.06
2023-06-06T10:41:55.416Z,94852.31
2023-06-06T10:44:21.933Z,94847.22
2023-06-06T10:46:50.512Z,94855.50
2023-06-06T10:49:17.021Z,94850.34
2023-06-06T10:51:43.506Z,94839.91
2023-06-06T10:54:09.986Z,94841.66
2023-06-06T10:56:36.527Z,94836.69
2023-06-06T10:59:03.183Z,94838.28
2023-06-06T11:01:29.708Z,94830.97
2023-06-06T11:03:56.307Z,94823.38
2023-06-06T11:06:22.916Z,94821.13
2023-06-06T11:08:49.431Z,94826.84
2023-06-06T11:11:15.924Z,94830.59
2023-06-06T11:13:42.504Z,94822.63
2023-06-06T11:16:09.156Z,94827.47
2023-06-06T11:18:35.867Z,94831.53
2023-06-06T11:21:02.325Z,94821.50
2023-06-06T11:23:28.851Z,94828.88
2023-06-06T11:25:55.316Z,94816.38
2023-06-06T11:28:21.823Z,94816.13
2023-06-06T11:30:48.311Z,94814.25
2023-06-06T11:33:14.914Z,94815.97
2023-06-06T11:35:41.583Z,94810.34
2023-06-06T11:38:08.115Z,94807.47
2023-06-06T11:40:34.656Z,94800.34
2023-06-06T11:43:01.556Z,94807.38
2023-06-06T11:45:28.276Z,94799.69
2023-06-06T11:48:06.587Z,94799.88
2023-06-06T11:50:40.732Z,94803.50
2023-06-06T11:53:07.222Z,94800.22
2023-06-06T11:55:33.712Z,94802.03
2023-06-06T11:58:00.644Z,94816.13
2023-06-06T12:00:27.111Z,94804.34
2023-06-06T12:02:53.718Z,94804.34
2023-06-06T12:05:20.406Z,94805.13
2023-06-06T12:07:46.894Z,94814.47
2023-06-06T12:10:13.413Z,94807.13
2023-06-06T12:12:39.914Z,94804.56
2023-06-06T12:15:06.473Z,94805.81
2023-06-06T12:17:33.005Z,94803.44
2023-06-06T12:19:59.535Z,94801.38
2023-06-06T12:22:26.068Z,94807.78
2023-06-06T12:24:52.501Z,94798.94
2023-06-06T12:27:18.977Z,94794.28
2023-06-06T12:29:45.420Z,94797.75
2023-06-06T12:32:11.934Z,94798.94
2023-06-06T12:34:38.438Z,94793.47
2023-06-06T12:37:04.918Z,94786.91
2023-06-06T12:39:31.384Z,94791.84
2023-06-06T12:41:57.806Z,94785.56
2023-06-06T12:44:24.273Z,94781.13
2023-06-06T12:46:53.045Z,94775.03
2023-06-06T12:49:19.528Z,94773.31
2023-06-06T12:51:46.052Z,94772.31
2023-06-06T12:54:12.535Z,94774.25
2023-06-06T12:56:39.121Z,94776.47
2023-06-06T12:59:05.672Z,94772.28
2023-06-06T13:01:32.352Z,94773.03
2023-06-06T13:03:59.130Z,94763.72
2023-06-06T13:06:25.822Z,94760.75
2023-06-06T13:08:52.317Z,94757.38
2023-06-06T13:11:18.780Z,94760.03
2023-06-06T13:13:45.262Z,94763.75
2023-06-06T13:16:11.837Z,94763.09
2023-06-06T13:18:38.370Z,94762.16
2023-06-06T13:21:05.121Z,94752.72
2023-06-06T13:23:31.759Z,94759.75
2023-06-06T13:25:58.236Z,94762.81
2023-06-06T13:28:24.729Z,94752.81
2023-06-06T13:30:51.213Z,94757.47
2023-06-06T13:33:17.945Z,94743.53
2023-06-06T13:35:46.395Z,94751.13
2023-06-06T13:38:13.047Z,94754.88
2023-06-06T13:40:39.503Z,94749.56
2023-06-06T13:43:05.985Z,94748.22
2023-06-06T13:45:32.473Z,94746.53
2023-06-06T13:47:58.973Z,94741.97
2023-06-06T13:50:25.467Z,94745.13
2023-06-06T13:52:51.925Z,94746.41
2023-06-06T13:55:18.382Z,94737.81
2023-06-06T13:57:44.839Z,94741.44
2023-06-06T14:00:11.391Z,94738.22
2023-06-06T14:02:37.987Z,94735.22
2023-06-06T14:05:04.636Z,94746.00
2023-06-06T14:07:31.279Z,94732.72
2023-06-06T14:09:57.987Z,94743.22
2023-06-06T14:12:24.454Z,94741.50
2023-06-06T14:14:50.906Z,94735.25
2023-06-06T14:17:17.766Z,94731.50
2023-06-06T14:19:44.483Z,94732.34
2023-06-06T14:22:11.326Z,94740.22
2023-06-06T14:24:40.895Z,94738.75
2023-06-06T14:27:07.508Z,94733.94
2023-06-06T14:29:33.960Z,94737.94
2023-06-06T14:32:00.450Z,94730.56
2023-06-06T14:34:27.285Z,94726.75
2023-06-06T14:36:54.776Z,94724.00
2023-06-06T14:39:21.464Z,94731.63
2023-06-06T14:41:47.924Z,94729.47
2023-06-06T14:44:14.504Z,94721.31
2023-06-06T14:46:41.062Z,94720.19
2023-06-06T14:49:07.565Z,94720.44
2023-06-06T14:51:34.095Z,94726.34
2023-06-06T14:54:00.564Z,94723.72
2023-06-06T14:56:27.017Z,94718.19
2023-06-06T14:58:53.493Z,94726.22
2023-06-06T15:01:19.991Z,94726.16
2023-06-06T15:03:46.656Z,94722.53
2023-06-06T15:06:13.275Z,94718.06
2023-06-06T15:08:39.721Z,94718.31
2023-06-06T15:11:06.217Z,94720.47
2023-06-06T15:13:32.711Z,94718.06
2023-06-06T15:15:59.344Z,94712.53
2023-06-06T15:18:25.840Z,94707.06
2023-06-06T15:20:52.374Z,94707.47
2023-06-06T15:23:18.869Z,94705.56
2023-06-06T15:25:45.336Z,94707.97
2023-06-06T15:28:11.806Z,94705.22
2023-06-06T15:30:39.267Z,94712.94
2023-06-06T15:33:05.817Z,94718.31
2023-06-06T15:35:32.425Z,94714.38
2023-06-06T15:37:59.000Z,94715.13
2023-06-06T15:40:28.343Z,94705.13
2023-06-06T15:42:54.910Z,94707.69
2023-06-06T15:45:22.455Z,94709.44
2023-06-06T15:47:51.120Z,94708.16
2023-06-06T15:50:17.618Z,94715.44
2023-06-06T15:52:44.118Z,94714.38
2023-06-06T15:55:10.638Z,94712.47
2023-06-06T15:57:37.131Z,94714.63
2023-06-06T16:00:03.804Z,94715.56
2023-06-06T16:02:32.430Z,94713.00
2023-06-06T16:04:59.151Z,94713.38
2023-06-06T16:07:25.681Z,94711.56
2023-06-06T16:09:53.208Z,94717.94
2023-06-06T16:12:21.505Z,94717.81
2023-06-06T16:14:47.991Z,94712.50
2023-06-06T16:17:14.446Z,94728.59
2023-06-06T16:19:41.023Z,94722.44
2023-06-06T16:22:07.534Z,94718.28
2023-06-06T16:24:34.009Z,94715.09
2023-06-06T16:27:00.599Z,94714.59
2023-06-06T16:29:27.174Z,94717.56
2023-06-06T16:31:53.675Z,94712.88
2023-06-06T16:34:20.190Z,94717.06
2023-06-06T16:36:46.777Z,94721.41
2023-06-06T16:39:14.182Z,94715.25
2023-06-06T16:41:40.767Z,94716.94
2023-06-06T16:44:07.279Z,94714.59
2023-06-06T16:46:33.885Z,94722.22
2023-06-06T16:49:00.372Z,94719.31
2023-06-06T16:51:26.850Z,94719.88
2023-06-06T16:53:53.460Z,94721.56
2023-06-06T16:56:19.914Z,94728.53
2023-06-06T16:58:46.512Z,94723.59
2023-06-06T17:01:13.106Z,94725.34
2023-06-06T17:03:39.719Z,94729.53
2023-06-06T17:06:06.225Z,94719.91
2023-06-06T17:08:32.708Z,94726.56
2023-06-06T17:10:59.163Z,94729.63
2023-06-06T17:13:25.707Z,94723.69
2023-06-06T17:15:52.211Z,94725.69
2023-06-06T17:18:18.717Z,94734.56
2023-06-06T17:20:45.203Z,94729.88
2023-06-06T17:23:11.637Z,94726.91
2023-06-06T17:28:08.505Z,94724.69
2023-06-06T17:30:35.013Z,94728.13
2023-06-06T17:33:01.594Z,94735.53
2023-06-06T17:35:28.220Z,94738.50
2023-06-06T17:37:54.723Z,94737.00
2023-06-06T17:40:21.238Z,94736.00
2023-06-06T17:42:47.937Z,94731.59
2023-06-06T17:45:16.698Z,94739.66
2023-06-06T17:47:43.483Z,94739.66
2023-06-06T17:50:09.983Z,94743.13
2023-06-06T17:52:36.465Z,94743.66
2023-06-06T17:55:02.962Z,94727.13
2023-06-06T17:57:29.467Z,94734.78
2023-06-06T17:59:56.093Z,94735.97
2023-06-06T18:02:22.591Z,94732.06
2023-06-06T18:04:49.127Z,94730.34
2023-06-06T18:07:15.685Z,94729.84
2023-06-06T18:09:42.148Z,94729.34
2023-06-06T18:12:08.692Z,94729.63
2023-06-06T18:14:35.148Z,94736.25
2023-06-06T18:17:01.754Z,94727.88
2023-06-06T18:19:29.609Z,94734.25
2023-06-06T18:21:56.182Z,94740.16
2023-06-06T18:24:22.627Z,94739.91
2023-06-06T18:26:49.132Z,94733.47
2023-06-06T18:29:15.609Z,94740.88
2023-06-06T18:31:42.080Z,94746.56
2023-06-06T18:34:08.609Z,94741.84
2023-06-06T18:36:35.095Z,94734.69
2023-06-06T18:39:01.635Z,94735.91
2023-06-06T18:41:28.237Z,94730.75
2023-06-06T18:43:54.713Z,94739.00
2023-06-06T18:46:21.286Z,94733.94
2023-06-06T18:48:47.801Z,94729.25
2023-06-06T18:51:14.309Z,94730.81
2023-06-06T18:53:40.800Z,94730.47
2023-06-06T18:56:07.457Z,94727.13
2023-06-06T18:58:33.972Z,94727.06
2023-06-06T19:01:02.344Z,94731.53
2023-06-06T19:03:28.901Z,94723.59
2023-06-06T19:05:55.591Z,94728.94
2023-06-06T19:08:22.366Z,94730.03
2023-06-06T19:10:49.270Z,94728.75
2023-06-06T19:13:15.953Z,94735.13
2023-06-06T19:15:42.451Z,94734.06
2023-06-06T19:18:19.302Z,94732.78
2023-06-06T19:20:55.539Z,94739.69
2023-06-06T19:23:22.161Z,94738.41
2023-06-06T19:25:48.663Z,94742.38
2023-06-06T19:28:15.195Z,94746.28
2023-06-06T19:30:41.735Z,94747.22
2023-06-06T19:33:08.323Z,94744.34
2023-06-06T19:35:34.860Z,94745.28
2023-06-06T19:38:01.450Z,94738.31
2023-06-06T19:40:27.985Z,94742.16
2023-06-06T19:42:54.540Z,94752.09
2023-06-06T19:45:21.058Z,94757.22
2023-06-06T19:47:47.665Z,94754.09
2023-06-06T19:50:14.206Z,94763.16
2023-06-06T19:52:40.751Z,94765.16
2023-06-06T19:55:07.319Z,94769.88
2023-06-06T19:57:33.953Z,94772.50
2023-06-06T20:00:01.088Z,94768.88
2023-06-06T20:02:27.900Z,94770.16
2023-06-06T20:04:54.422Z,94771.84
2023-06-06T20:07:21.279Z,94778.19
2023-06-06T20:09:47.896Z,94779.91
2023-06-06T20:12:14.533Z,94779.38
2023-06-06T20:14:41.089Z,94785.16
2023-06-06T20:17:07.769Z,94779.28
2023-06-06T20:19:34.331Z,94782.19
2023-06-06T20:22:00.945Z,94777.66
2023-06-06T20:24:27.550Z,94782.34
2023-06-06T20:26:54.180Z,94782.34
2023-06-06T20:29:20.704Z,94785.31
2023-06-06T20:31:47.342Z,94787.63
2023-06-06T20:34:13.987Z,94792.22
2023-06-06T20:36:40.632Z,94792.22
2023-06-06T20:39:07.096Z,94792.63
2023-06-06T20:41:33.569Z,94789.13
2023-06-06T20:44:00.062Z,94787.69
2023-06-06T20:46:26.564Z,94783.50
2023-06-06T20:48:53.053Z,94792.09
2023-06-06T20:51:19.532Z,94779.25
2023-06-06T20:53:45.982Z,94784.59
2023-06-06T20:56:12.443Z,94780.31
2023-06-06T20:58:38.952Z,94787.22
2023-06-06T21:01:05.461Z,94775.75
2023-06-06T21:03:32.008Z,94776.34
2023-06-06T21:05:58.512Z,94784.97
2023-06-06T21:08:24.996Z,94786.31
2023-06-06T21:10:51.514Z,94779.59
2023-06-06T21:13:18.006Z,94784.91
2023-06-06T21:15:44.475Z,94789.63
2023-06-06T21:18:10.952Z,94793.44
2023-06-06T21:20:37.478Z,94783.78
2023-06-06T21:23:03.913Z,94787.81
2023-06-06T21:25:30.455Z,94788.00
2023-06-06T21:27:56.903Z,94790.88
2023-06-06T21:30:23.410Z,94794.44
2023-06-06T21:32:49.892Z,94782.44
2023-06-06T21:35:20.101Z,94779.56
2023-06-06T21:37:46.585Z,94778.75
2023-06-06T21:40:13.032Z,94792.50
2023-06-06T21:42:39.518Z,94794.75
2023-06-06T21:45:05.971Z,94793.66
2023-06-06T21:47:32.504Z,94793.56
2023-06-06T21:49:58.985Z,94808.25
2023-06-06T21:52:25.458Z,94807.56
2023-06-06T21:54:51.987Z,94814.69
2023-06-06T21:57:18.433Z,94820.56
2023-06-06T21:59:44.913Z,94813.19
2023-06-06T22:02:11.464Z,94815.50
2023-06-06T22:04:37.954Z,94817.03
2023-06-06T22:07:04.409Z,94818.06
2023-06-06T22:09:30.942Z,94819.53
2023-06-06T22:11:57.405Z,94825.31
2023-06-06T22:14:23.899Z,94830.47
2023-06-06T22:16:50.481Z,94832.59
2023-06-06T22:19:16.960Z,94828.91
2023-06-06T22:21:43.454Z,94834.63
2023-06-06T22:24:10.161Z,94826.44
2023-06-06T22:26:36.672Z,94820.44
2023-06-06T22:29:03.127Z,94830.69
2023-06-06T22:31:31.810Z,94834.03
2023-06-06T22:33:58.351Z,94840.84
2023-06-06T22:36:24.863Z,94837.53
2023-06-06T22:38:51.392Z,94832.25
2023-06-06T22:41:17.952Z,94836.06
2023-06-06T22:43:44.420Z,94841.44
2023-06-06T22:46:10.895Z,94844.66
2023-06-06T22:48:37.379Z,94836.50
2023-06-06T22:51:03.833Z,94828.31
2023-06-06T22:53:30.304Z,94830.78
2023-06-06T22:55:56.732Z,94829.59
2023-06-06T22:58:23.171Z,94833.25
2023-06-06T23:00:49.604Z,94842.09
2023-06-06T23:03:16.202Z,94829.50
2023-06-06T23:05:42.721Z,94834.53
2023-06-06T23:08:09.211Z,94831.75
2023-06-06T23:10:35.702Z,94834.94
2023-06-06T23:13:02.163Z,94828.63
2023-06-06T23:15:28.637Z,94827.47
2023-06-06T23:17:55.276Z,94837.88
2023-06-06T23:20:21.807Z,94831.97
2023-06-06T23:22:48.248Z,94840.56
2023-06-06T23:25:14.715Z,94838.81
2023-06-06T23:27:41.165Z,94835.66
2023-06-06T23:30:07.760Z,94842.06
2023-06-06T23:32:34.313Z,94840.56
2023-06-06T23:35:00.826Z,94835.44
2023-06-06T23:37:27.324Z,94848.34
2023-06-06T23:39:54.108Z,94834.94
2023-06-06T23:42:20.572Z,94833.41
2023-06-06T23:44:47.043Z,94835.75
2023-06-06T23:47:13.543Z,94836.63
2023-06-06T23:49:40.078Z,94831.19
2023-06-06T23:52:06.578Z,94832.25
2023-06-06T23:54:33.054Z,94833.75
2023-06-06T23:56:59.756Z,94835.41
2023-06-06T23:59:26.243Z,94827.78
